ANA624 RJFK-RJTT
Flight info
| Callsign | ANA624 |
|---|---|
| Flight time | N/A |
| Altitude | 35000 |
| Route | MIDAI M750 BILLY Y21 AKSEL |
| Aircraft | A321/M-SDE3FGHIRWY/LB1 |
Departure
| Time | N/A |
|---|---|
| Airport | Kagoshima Airport (RJFK) |
Arrival
| Time | 2026-02-19 15:52 |
|---|---|
| Airport | Tokyo Haneda International Airport (RJTT) |
| Time | Latitude | Longitude | Altitude | Speed | Heading |
|---|---|---|---|---|---|
| 2026-02-19 14:52 | 32.56010 | 133.43367 | 35197 ft | 469 kts | 61° |
| 2026-02-19 14:53 | 32.58894 | 133.50352 | 35197 ft | 469 kts | 61° |
| 2026-02-19 14:53 | 32.61758 | 133.57300 | 35197 ft | 469 kts | 61° |
| 2026-02-19 14:54 | 32.64596 | 133.64201 | 35197 ft | 469 kts | 61° |
| 2026-02-19 14:54 | 32.67456 | 133.71172 | 35197 ft | 469 kts | 62° |
| 2026-02-19 14:55 | 32.70301 | 133.78116 | 35197 ft | 469 kts | 62° |
| 2026-02-19 14:55 | 32.73161 | 133.85106 | 35197 ft | 469 kts | 62° |
| 2026-02-19 14:56 | 32.76002 | 133.92067 | 35197 ft | 469 kts | 62° |
| 2026-02-19 14:56 | 32.80184 | 134.02336 | 35197 ft | 469 kts | 62° |
| 2026-02-19 14:57 | 32.82697 | 134.09467 | 35197 ft | 471 kts | 69° |
| 2026-02-19 14:57 | 32.84645 | 134.16943 | 35197 ft | 471 kts | 72° |
| 2026-02-19 14:58 | 32.86483 | 134.24405 | 35197 ft | 472 kts | 72° |
| 2026-02-19 14:58 | 32.88320 | 134.31834 | 35197 ft | 472 kts | 71° |
| 2026-02-19 14:59 | 32.90174 | 134.39319 | 35197 ft | 472 kts | 71° |
| 2026-02-19 14:59 | 32.92025 | 134.46802 | 35197 ft | 471 kts | 71° |
| 2026-02-19 15:00 | 32.94793 | 134.58023 | 35197 ft | 472 kts | 71° |
| 2026-02-19 15:01 | 32.96629 | 134.65488 | 35196 ft | 472 kts | 72° |
| 2026-02-19 15:01 | 32.98455 | 134.72945 | 35196 ft | 473 kts | 72° |
| 2026-02-19 15:02 | 33.00308 | 134.80522 | 35196 ft | 476 kts | 72° |
| 2026-02-19 15:02 | 33.02145 | 134.88062 | 35197 ft | 478 kts | 71° |
| 2026-02-19 15:03 | 33.03994 | 134.95674 | 35196 ft | 480 kts | 71° |
| 2026-02-19 15:03 | 33.05859 | 135.03371 | 35196 ft | 483 kts | 71° |
| 2026-02-19 15:04 | 33.07715 | 135.11038 | 35196 ft | 485 kts | 71° |
| 2026-02-19 15:04 | 33.10490 | 135.22647 | 35189 ft | 487 kts | 72° |
| 2026-02-19 15:05 | 33.12228 | 135.30490 | 35185 ft | 490 kts | 72° |
| 2026-02-19 15:05 | 33.13956 | 135.38367 | 35182 ft | 491 kts | 72° |
| 2026-02-19 15:06 | 33.15684 | 135.46223 | 35182 ft | 490 kts | 72° |
| 2026-02-19 15:06 | 33.17412 | 135.54082 | 35182 ft | 490 kts | 72° |
| 2026-02-19 15:07 | 33.19141 | 135.61971 | 35181 ft | 490 kts | 72° |
| 2026-02-19 15:07 | 33.20864 | 135.69850 | 35180 ft | 490 kts | 73° |
| 2026-02-19 15:08 | 33.23441 | 135.81688 | 35180 ft | 491 kts | 73° |
| 2026-02-19 15:09 | 33.25149 | 135.89578 | 35182 ft | 491 kts | 73° |
| 2026-02-19 15:09 | 33.26849 | 135.97467 | 35181 ft | 490 kts | 73° |
| 2026-02-19 15:10 | 33.28543 | 136.05341 | 35182 ft | 491 kts | 73° |
| 2026-02-19 15:10 | 33.30239 | 136.13248 | 35181 ft | 490 kts | 73° |
| 2026-02-19 15:11 | 33.31921 | 136.21115 | 35181 ft | 490 kts | 73° |
| 2026-02-19 15:11 | 33.33594 | 136.28972 | 35182 ft | 490 kts | 73° |
| 2026-02-19 15:12 | 33.35272 | 136.36876 | 35181 ft | 490 kts | 73° |
| 2026-02-19 15:12 | 33.37785 | 136.48755 | 35181 ft | 490 kts | 73° |
| 2026-02-19 15:13 | 33.39450 | 136.56663 | 35182 ft | 490 kts | 73° |
| 2026-02-19 15:13 | 33.41102 | 136.64549 | 35181 ft | 490 kts | 73° |
| 2026-02-19 15:14 | 33.42763 | 136.72493 | 35181 ft | 491 kts | 73° |
| 2026-02-19 15:14 | 33.44416 | 136.80431 | 35180 ft | 491 kts | 73° |
| 2026-02-19 15:15 | 33.46059 | 136.88344 | 35182 ft | 490 kts | 73° |
| 2026-02-19 15:15 | 33.47707 | 136.96307 | 35181 ft | 490 kts | 73° |
| 2026-02-19 15:16 | 33.50151 | 137.08157 | 35182 ft | 489 kts | 73° |
| 2026-02-19 15:17 | 33.51781 | 137.16093 | 35181 ft | 489 kts | 73° |
| 2026-02-19 15:17 | 33.53398 | 137.23991 | 35182 ft | 489 kts | 73° |
| 2026-02-19 15:18 | 33.55017 | 137.31931 | 35181 ft | 489 kts | 73° |
| 2026-02-19 15:18 | 33.56630 | 137.39865 | 35181 ft | 489 kts | 73° |
| 2026-02-19 15:19 | 33.58237 | 137.47794 | 35181 ft | 489 kts | 73° |
| 2026-02-19 15:19 | 33.59867 | 137.55701 | 35181 ft | 488 kts | 71° |
| 2026-02-19 15:20 | 33.62052 | 137.63402 | 35188 ft | 484 kts | 63° |
| 2026-02-19 15:20 | 33.66577 | 137.74112 | 35195 ft | 480 kts | 56° |
| 2026-02-19 15:21 | 33.69832 | 137.81123 | 35197 ft | 480 kts | 56° |
| 2026-02-19 15:21 | 33.73058 | 137.88139 | 35197 ft | 481 kts | 57° |
| 2026-02-19 15:22 | 33.77875 | 137.98694 | 35197 ft | 481 kts | 57° |
| 2026-02-19 15:23 | 33.81084 | 138.05753 | 35197 ft | 480 kts | 57° |
| 2026-02-19 15:23 | 33.84277 | 138.12788 | 35197 ft | 481 kts | 57° |
| 2026-02-19 15:24 | 33.90700 | 138.26982 | 35196 ft | 480 kts | 57° |
| 2026-02-19 15:25 | 33.93884 | 138.34093 | 35194 ft | 480 kts | 57° |
| 2026-02-19 15:25 | 33.97047 | 138.41211 | 35191 ft | 481 kts | 57° |
| 2026-02-19 15:26 | 34.00195 | 138.48305 | 35187 ft | 481 kts | 57° |
| 2026-02-19 15:26 | 34.03375 | 138.55476 | 35172 ft | 480 kts | 57° |
| 2026-02-19 15:26 | 34.04945 | 138.59024 | 34786 ft | 482 kts | 57° |
| 2026-02-19 15:27 | 34.06535 | 138.62613 | 33871 ft | 489 kts | 57° |
| 2026-02-19 15:27 | 34.08032 | 138.65994 | 32992 ft | 494 kts | 58° |
| 2026-02-19 15:27 | 34.09658 | 138.69673 | 32156 ft | 495 kts | 58° |
| 2026-02-19 15:27 | 34.11274 | 138.73338 | 31401 ft | 495 kts | 58° |
| 2026-02-19 15:28 | 34.12902 | 138.77037 | 30629 ft | 494 kts | 58° |
| 2026-02-19 15:28 | 34.16114 | 138.84345 | 29072 ft | 492 kts | 58° |
| 2026-02-19 15:28 | 34.17723 | 138.88008 | 28513 ft | 485 kts | 59° |
| 2026-02-19 15:29 | 34.19289 | 138.91586 | 27967 ft | 479 kts | 59° |
| 2026-02-19 15:29 | 34.20861 | 138.95175 | 27367 ft | 474 kts | 59° |
| 2026-02-19 15:29 | 34.22388 | 138.98662 | 26770 ft | 469 kts | 59° |
| 2026-02-19 15:30 | 34.25440 | 139.05631 | 25508 ft | 462 kts | 59° |
| 2026-02-19 15:30 | 34.26931 | 139.09044 | 24889 ft | 458 kts | 60° |
| 2026-02-19 15:30 | 34.28378 | 139.12470 | 24270 ft | 455 kts | 63° |
| 2026-02-19 15:30 | 34.29664 | 139.15971 | 23667 ft | 452 kts | 66° |
| 2026-02-19 15:31 | 34.30883 | 139.19485 | 23085 ft | 448 kts | 68° |
| 2026-02-19 15:31 | 34.33219 | 139.26320 | 21993 ft | 438 kts | 68° |
| 2026-02-19 15:31 | 34.34280 | 139.29427 | 21502 ft | 434 kts | 68° |
| 2026-02-19 15:32 | 34.35435 | 139.32796 | 20965 ft | 430 kts | 68° |
| 2026-02-19 15:32 | 34.37727 | 139.39471 | 19906 ft | 421 kts | 68° |
| 2026-02-19 15:32 | 34.38850 | 139.42744 | 19387 ft | 416 kts | 68° |
| 2026-02-19 15:33 | 34.41046 | 139.49149 | 18371 ft | 408 kts | 69° |
| 2026-02-19 15:33 | 34.42142 | 139.52354 | 17863 ft | 404 kts | 69° |
| 2026-02-19 15:33 | 34.43214 | 139.55486 | 17368 ft | 400 kts | 69° |
| 2026-02-19 15:34 | 34.45336 | 139.61699 | 16383 ft | 392 kts | 69° |
| 2026-02-19 15:34 | 34.46381 | 139.64764 | 15897 ft | 388 kts | 69° |
| 2026-02-19 15:34 | 34.47405 | 139.67773 | 15415 ft | 384 kts | 69° |
| 2026-02-19 15:35 | 34.48611 | 139.70670 | 14911 ft | 383 kts | 56° |
| 2026-02-19 15:35 | 34.50430 | 139.73041 | 14392 ft | 382 kts | 39° |
| 2026-02-19 15:35 | 34.52670 | 139.74846 | 13745 ft | 383 kts | 31° |
| 2026-02-19 15:35 | 34.54961 | 139.76476 | 13179 ft | 381 kts | 30° |
| 2026-02-19 15:36 | 34.57234 | 139.78076 | 12784 ft | 373 kts | 31° |
| 2026-02-19 15:36 | 34.61561 | 139.81194 | 12449 ft | 346 kts | 31° |
| 2026-02-19 15:36 | 34.63605 | 139.82692 | 12291 ft | 334 kts | 32° |
| 2026-02-19 15:37 | 34.65541 | 139.84117 | 12184 ft | 320 kts | 32° |
| 2026-02-19 15:37 | 34.67416 | 139.85501 | 12176 ft | 303 kts | 32° |
| 2026-02-19 15:37 | 34.69164 | 139.86791 | 12172 ft | 288 kts | 32° |
| 2026-02-19 15:37 | 34.70790 | 139.87990 | 12072 ft | 277 kts | 32° |
| 2026-02-19 15:38 | 34.72417 | 139.89192 | 12025 ft | 271 kts | 32° |
| 2026-02-19 15:38 | 34.73985 | 139.90350 | 12007 ft | 270 kts | 32° |
| 2026-02-19 15:38 | 34.75654 | 139.91434 | 11863 ft | 277 kts | 18° |
| 2026-02-19 15:38 | 34.77568 | 139.91902 | 11614 ft | 278 kts | 6° |
| 2026-02-19 15:39 | 34.79500 | 139.92123 | 11363 ft | 277 kts | 4° |
| 2026-02-19 15:39 | 34.81455 | 139.92340 | 11108 ft | 276 kts | 5° |
| 2026-02-19 15:39 | 34.83383 | 139.92593 | 10854 ft | 275 kts | 6° |
| 2026-02-19 15:39 | 34.85283 | 139.92877 | 10603 ft | 274 kts | 6° |
| 2026-02-19 15:40 | 34.87147 | 139.93175 | 10356 ft | 273 kts | 6° |
| 2026-02-19 15:40 | 34.90903 | 139.93808 | 9890 ft | 269 kts | 6° |
| 2026-02-19 15:41 | 34.94595 | 139.94444 | 9641 ft | 266 kts | 6° |
| 2026-02-19 15:41 | 34.96418 | 139.94759 | 9516 ft | 264 kts | 5° |
| 2026-02-19 15:41 | 34.98234 | 139.95071 | 9391 ft | 261 kts | 5° |
| 2026-02-19 15:41 | 35.00032 | 139.95383 | 9267 ft | 259 kts | 5° |
| 2026-02-19 15:42 | 35.01825 | 139.95692 | 9141 ft | 257 kts | 5° |
| 2026-02-19 15:42 | 35.03614 | 139.96002 | 9002 ft | 255 kts | 5° |
| 2026-02-19 15:42 | 35.05373 | 139.96306 | 8848 ft | 254 kts | 5° |
| 2026-02-19 15:42 | 35.07113 | 139.96608 | 8683 ft | 253 kts | 5° |
| 2026-02-19 15:43 | 35.08875 | 139.96915 | 8492 ft | 252 kts | 5° |
| 2026-02-19 15:43 | 35.10611 | 139.97215 | 8232 ft | 251 kts | 5° |
| 2026-02-19 15:43 | 35.12323 | 139.97514 | 8013 ft | 247 kts | 5° |
| 2026-02-19 15:43 | 35.14023 | 139.97810 | 7996 ft | 241 kts | 5° |
| 2026-02-19 15:44 | 35.15698 | 139.98004 | 7974 ft | 237 kts | 0° |
| 2026-02-19 15:44 | 35.19072 | 139.98126 | 7162 ft | 244 kts | 359° |
| 2026-02-19 15:44 | 35.20776 | 139.98178 | 6848 ft | 242 kts | 359° |
| 2026-02-19 15:45 | 35.22455 | 139.98231 | 6537 ft | 240 kts | 359° |
| 2026-02-19 15:45 | 35.24142 | 139.98290 | 6217 ft | 239 kts | 359° |
| 2026-02-19 15:45 | 35.25348 | 139.98329 | 5989 ft | 237 kts | 358° |
| 2026-02-19 15:45 | 35.26984 | 139.98297 | 5669 ft | 235 kts | 352° |
| 2026-02-19 15:46 | 35.28632 | 139.97975 | 5325 ft | 232 kts | 343° |
| 2026-02-19 15:46 | 35.30143 | 139.97299 | 4991 ft | 229 kts | 334° |
| 2026-02-19 15:46 | 35.31575 | 139.96402 | 4660 ft | 228 kts | 330° |
| 2026-02-19 15:46 | 35.32912 | 139.95485 | 4341 ft | 226 kts | 329° |
| 2026-02-19 15:47 | 35.34298 | 139.94507 | 4133 ft | 224 kts | 329° |
| 2026-02-19 15:47 | 35.35606 | 139.93574 | 3995 ft | 221 kts | 329° |
| 2026-02-19 15:47 | 35.36921 | 139.92636 | 3812 ft | 213 kts | 329° |
| 2026-02-19 15:47 | 35.38195 | 139.91728 | 3626 ft | 206 kts | 329° |
| 2026-02-19 15:48 | 35.39429 | 139.90849 | 3352 ft | 204 kts | 329° |
| 2026-02-19 15:48 | 35.41859 | 139.89119 | 2813 ft | 199 kts | 330° |
| 2026-02-19 15:48 | 35.43058 | 139.88266 | 2547 ft | 197 kts | 330° |
| 2026-02-19 15:49 | 35.44240 | 139.87425 | 2286 ft | 194 kts | 330° |
| 2026-02-19 15:49 | 35.45408 | 139.86595 | 2064 ft | 188 kts | 330° |
| 2026-02-19 15:49 | 35.46484 | 139.85831 | 1859 ft | 173 kts | 330° |
| 2026-02-19 15:49 | 35.47506 | 139.85104 | 1589 ft | 162 kts | 330° |
| 2026-02-19 15:50 | 35.48444 | 139.84438 | 1351 ft | 150 kts | 330° |
| 2026-02-19 15:50 | 35.49311 | 139.83823 | 1164 ft | 138 kts | 330° |
| 2026-02-19 15:50 | 35.50105 | 139.83260 | 993 ft | 137 kts | 330° |
| 2026-02-19 15:50 | 35.50913 | 139.82686 | 808 ft | 130 kts | 330° |
| 2026-02-19 15:51 | 35.51690 | 139.82134 | 637 ft | 128 kts | 330° |
| 2026-02-19 15:51 | 35.52465 | 139.81583 | 461 ft | 128 kts | 330° |
| 2026-02-19 15:51 | 35.53126 | 139.81113 | 310 ft | 127 kts | 330° |
| 2026-02-19 15:51 | 35.53892 | 139.80571 | 138 ft | 127 kts | 331° |
| 2026-02-19 15:52 | 35.54639 | 139.80041 | 44 ft | 110 kts | 330° |
| 2026-02-19 15:52 | 35.55259 | 139.79601 | 44 ft | 32 kts | 330° |
| 2026-02-19 15:52 | 35.55425 | 139.79439 | 44 ft | 28 kts | 311° |
| 2026-02-19 15:53 | 35.55514 | 139.79236 | 44 ft | 26 kts | 273° |
| 2026-02-19 15:53 | 35.55447 | 139.79036 | 44 ft | 24 kts | 238° |
| 2026-02-19 15:53 | 35.55390 | 139.78935 | 44 ft | 7 kts | 212° |
| 2026-02-19 15:53 | 35.55367 | 139.78919 | 44 ft | 3 kts | 214° |
| 2026-02-19 15:54 | 35.55350 | 139.78894 | 44 ft | 4 kts | 240° |
| 2026-02-19 15:54 | 35.55335 | 139.78863 | 44 ft | 4 kts | 239° |
| 2026-02-19 15:54 | 35.55316 | 139.78824 | 44 ft | 0 kts | 240° |